Time;durP1;ratioP1;P1;durP2;ratioP2;P2;SDS_P1;SDS_P2;PMS_P1;PMS_P2;Temp;Humidity;BMP_temperature;BMP_pressure;BME280_temperature;BME280_humidity;BME280_pressure;Samples;Min_cycle;Max_cycle;Signal;HPM_P1;HPM_P2
2022/01/29 00:00:09;;;;;;;52.27;28.40;;;6.20;99.90;;;;;;4996115;28;20054;-87
2022/01/29 00:02:34;;;;;;;49.77;28.43;;;6.30;99.90;;;;;;4978075;28;20034;-87
2022/01/29 00:05:00;;;;;;;48.93;28.73;;;6.20;99.90;;;;;;4978512;28;20554;-87
2022/01/29 00:07:32;;;;;;;54.87;27.80;;;6.30;99.90;;;;;;4978639;28;20042;-87
2022/01/29 00:10:03;;;;;;;48.70;28.03;;;6.30;99.90;;;;;;4978014;28;20112;-86
2022/01/29 00:12:41;;;;;;;53.83;27.13;;;6.20;99.90;;;;;;4977122;28;20421;-87
2022/01/29 00:15:07;;;;;;;55.80;29.53;;;6.20;99.90;;;;;;4978424;28;20046;-87
2022/01/29 00:17:42;;;;;;;55.87;29.53;;;6.40;99.90;;;;;;4977383;28;20494;-87
2022/01/29 00:20:08;;;;;;;57.67;30.60;;;6.20;99.90;;;;;;4994194;28;20398;-87
2022/01/29 00:22:34;;;;;;;50.73;28.63;;;6.30;99.90;;;;;;5038654;23;20060;-87
2022/01/29 00:24:59;;;;;;;52.77;28.73;;;6.30;99.90;;;;;;5017284;28;20041;-87
2022/01/29 00:27:29;;;;;;;53.30;29.50;;;6.40;99.90;;;;;;5011942;28;20046;-87
2022/01/29 00:29:55;;;;;;;52.93;27.80;;;6.30;99.90;;;;;;5016380;28;20085;-87
2022/01/29 00:32:32;;;;;;;52.60;27.97;;;6.30;99.90;;;;;;5017092;28;20072;-86
2022/01/29 00:34:58;;;;;;;51.47;28.13;;;6.40;99.90;;;;;;5017040;28;20088;-87
2022/01/29 00:37:33;;;;;;;51.57;28.37;;;6.30;99.90;;;;;;5016227;28;20077;-87
2022/01/29 00:40:12;;;;;;;50.60;28.20;;;6.40;99.90;;;;;;5016239;28;20061;-87
2022/01/29 00:42:41;;;;;;;51.70;28.33;;;6.40;99.90;;;;;;5016898;28;20481;-87
2022/01/29 00:45:19;;;;;;;50.77;28.07;;;6.20;99.90;;;;;;5032858;28;20107;-87
2022/01/29 00:47:50;;;;;;;55.13;29.20;;;6.10;99.90;;;;;;5016786;28;20048;-87
2022/01/29 00:50:31;;;;;;;52.37;28.33;;;6.40;99.90;;;;;;5016674;28;20055;-87
2022/01/29 00:53:06;;;;;;;48.43;27.43;;;6.40;99.90;;;;;;5016495;28;20128;-87
2022/01/29 00:55:32;;;;;;;48.63;29.27;;;6.20;99.90;;;;;;5016486;28;20123;-87
2022/01/29 00:57:57;;;;;;;52.07;29.37;;;6.40;99.90;;;;;;5015778;28;20081;-87
2022/01/29 01:00:32;;;;;;;53.97;29.37;;;7.30;99.90;;;;;;5016465;28;20401;-86
2022/01/29 01:03:10;;;;;;;53.87;29.10;;;6.20;99.90;;;;;;5016578;28;20060;-87
2022/01/29 01:05:44;;;;;;;53.20;28.83;;;6.10;99.90;;;;;;5015762;28;20457;-87
2022/01/29 01:08:15;;;;;;;55.37;28.40;;;6.00;99.90;;;;;;5016363;28;20072;-87
2022/01/29 01:10:50;;;;;;;56.10;28.57;;;6.60;99.90;;;;;;5033724;28;20049;-87
2022/01/29 01:13:22;;;;;;;56.40;30.70;;;6.00;99.90;;;;;;5015641;28;20490;-87
2022/01/29 01:15:47;;;;;;;59.23;29.60;;;6.00;99.90;;;;;;5015920;28;20220;-87
2022/01/29 01:18:13;;;;;;;57.90;30.00;;;6.20;99.90;;;;;;5016100;28;20140;-87
2022/01/29 01:20:39;;;;;;;60.80;30.77;;;6.10;99.90;;;;;;5016269;28;20481;-87
2022/01/29 01:23:04;;;;;;;55.70;27.70;;;6.00;99.90;;;;;;5013874;28;20057;-87
2022/01/29 01:25:30;;;;;;;59.73;31.50;;;5.60;99.90;;;;;;5013273;28;20053;-87
2022/01/29 01:28:05;;;;;;;60.30;30.83;;;5.90;99.90;;;;;;5012175;28;20442;-87
2022/01/29 01:30:30;;;;;;;67.77;31.57;;;6.70;99.90;;;;;;5013508;28;20136;-86
2022/01/29 01:32:56;;;;;;;61.53;32.93;;;6.00;99.90;;;;;;5012091;28;20128;-87
2022/01/29 01:35:37;;;;;;;63.27;32.60;;;5.90;99.90;;;;;;5014279;28;20096;-87
2022/01/29 01:38:17;;;;;;;64.03;33.03;;;5.90;99.90;;;;;;5012220;28;20548;-87
2022/01/29 01:40:48;;;;;;;67.57;33.20;;;6.60;99.90;;;;;;5011663;28;20053;-87
2022/01/29 01:43:13;;;;;;;63.13;31.73;;;6.00;99.90;;;;;;5026674;23;20079;-87
2022/01/29 01:45:40;;;;;;;62.60;31.17;;;6.00;99.90;;;;;;5015460;28;20060;-87
2022/01/29 01:48:06;;;;;;;66.33;31.30;;;6.20;99.90;;;;;;5015130;28;20041;-87
2022/01/29 01:50:44;;;;;;;62.03;32.43;;;6.00;99.90;;;;;;5014376;28;20401;-87
2022/01/29 01:53:10;;;;;;;58.13;29.23;;;5.80;99.90;;;;;;5014699;28;20057;-87
2022/01/29 01:55:37;;;;;;;63.33;29.83;;;6.00;99.90;;;;;;5014627;28;20041;-87
2022/01/29 01:58:08;;;;;;;62.20;29.77;;;5.80;99.90;;;;;;5015484;28;20048;-87
2022/01/29 02:00:43;;;;;;;70.43;31.90;;;6.40;99.90;;;;;;5015688;28;20033;-87
2022/01/29 02:03:17;;;;;;;58.50;27.50;;;6.10;99.90;;;;;;5015069;28;20136;-87
2022/01/29 02:05:53;;;;;;;61.20;30.63;;;6.20;99.90;;;;;;5015288;28;20397;-87
2022/01/29 02:08:34;;;;;;;61.03;29.67;;;6.10;99.90;;;;;;5014517;28;20981;-87
2022/01/29 02:11:09;;;;;;;58.87;30.13;;;5.90;99.90;;;;;;5015406;28;20503;-87
2022/01/29 02:13:44;;;;;;;66.03;29.10;;;5.80;99.90;;;;;;5015542;28;20060;-86
2022/01/29 02:16:22;;;;;;;57.37;28.33;;;6.60;99.90;;;;;;5014532;28;20045;-87
2022/01/29 02:18:57;;;;;;;61.93;28.40;;;5.80;99.90;;;;;;5015050;28;20493;-86
2022/01/29 02:21:27;;;;;;;55.07;27.70;;;5.90;99.90;;;;;;5015633;28;20053;-86
2022/01/29 02:23:59;;;;;;;58.33;29.93;;;6.10;99.90;;;;;;5032354;28;20128;-87
2022/01/29 02:26:37;;;;;;;58.83;28.10;;;5.90;99.90;;;;;;5032688;28;20050;-87
2022/01/29 02:29:15;;;;;;;58.00;27.07;;;5.60;99.90;;;;;;5015698;28;20045;-87
2022/01/29 02:31:56;;;;;;;51.17;24.83;;;5.80;99.90;;;;;;5014766;28;20056;-86
2022/01/29 02:34:31;;;;;;;50.50;24.87;;;6.10;99.90;;;;;;5015429;28;20054;-87
2022/01/29 02:36:57;;;;;;;56.53;26.83;;;6.00;99.90;;;;;;5011251;23;20058;-87
2022/01/29 02:39:22;;;;;;;53.70;26.50;;;6.20;99.90;;;;;;5011513;28;20050;-86
2022/01/29 02:41:48;;;;;;;54.97;24.23;;;6.20;99.90;;;;;;5011637;28;20509;-87
2022/01/29 02:44:20;;;;;;;57.23;26.37;;;6.20;99.90;;;;;;5012237;28;20457;-87
2022/01/29 02:46:54;;;;;;;53.03;26.27;;;6.20;99.90;;;;;;5011394;28;20069;-86
2022/01/29 02:49:26;;;;;;;51.93;24.67;;;6.30;99.90;;;;;;5011981;28;20077;-86
2022/01/29 02:51:54;;;;;;;50.87;24.40;;;6.30;99.90;;;;;;5011633;28;20048;-87
2022/01/29 02:54:20;;;;;;;51.60;23.53;;;6.10;99.90;;;;;;5011223;28;20046;-87
2022/01/29 02:56:46;;;;;;;51.20;25.10;;;6.30;99.90;;;;;;5011356;28;20092;-87
2022/01/29 02:59:21;;;;;;;49.43;23.70;;;6.30;99.90;;;;;;5010836;28;20077;-87
2022/01/29 03:01:56;;;;;;;50.83;23.33;;;6.20;99.90;;;;;;5011717;28;20516;-87
2022/01/29 03:04:27;;;;;;;44.13;22.77;;;6.40;99.90;;;;;;5014472;28;20045;-87
2022/01/29 03:06:53;;;;;;;48.23;23.67;;;6.60;99.90;;;;;;5014730;28;20041;-87
2022/01/29 03:09:18;;;;;;;47.10;22.37;;;6.30;99.90;;;;;;5015653;28;20092;-86
2022/01/29 03:11:47;;;;;;;53.27;24.47;;;6.40;99.90;;;;;;5014486;28;20049;-87
2022/01/29 03:14:25;;;;;;;53.23;22.93;;;6.30;99.90;;;;;;5016711;28;20055;-87
2022/01/29 03:16:59;;;;;;;57.03;24.97;;;5.80;99.90;;;;;;5015284;28;20490;-87
2022/01/29 03:19:25;;;;;;;55.47;24.83;;;7.30;99.90;;;;;;5014608;28;20054;-86
2022/01/29 03:22:03;;;;;;;51.73;24.30;;;6.30;99.90;;;;;;5015482;28;20065;-87
2022/01/29 03:24:35;;;;;;;51.30;24.40;;;6.30;99.90;;;;;;5016535;28;20049;-87
2022/01/29 03:27:12;;;;;;;56.80;25.03;;;6.20;99.90;;;;;;5014505;28;20433;-87
2022/01/29 03:29:47;;;;;;;47.43;23.03;;;6.60;99.90;;;;;;5015029;28;20136;-87
2022/01/29 03:32:28;;;;;;;52.23;23.87;;;6.50;99.90;;;;;;5015908;28;20108;-87
2022/01/29 03:35:06;;;;;;;54.37;23.37;;;6.30;99.90;;;;;;5016500;28;20049;-87
2022/01/29 03:37:39;;;;;;;49.33;22.60;;;6.50;99.90;;;;;;5014309;28;20515;-88
2022/01/29 03:40:14;;;;;;;50.13;22.90;;;6.40;99.90;;;;;;5014196;28;20050;-87
2022/01/29 03:42:58;;;;;;;52.83;22.97;;;7.60;99.90;;;;;;5014356;28;20045;-87
2022/01/29 03:45:24;;;;;;;55.47;23.73;;;7.80;99.90;;;;;;5014754;28;20046;-87
2022/01/29 03:48:03;;;;;;;52.83;23.20;;;6.60;99.90;;;;;;5014050;28;20049;-87
2022/01/29 03:50:36;;;;;;;48.47;23.60;;;6.60;99.90;;;;;;5014345;28;20042;-87
2022/01/29 03:53:08;;;;;;;51.07;22.40;;;6.50;99.90;;;;;;5014908;28;20064;-87
2022/01/29 03:55:43;;;;;;;51.33;23.00;;;6.80;99.90;;;;;;5013813;28;20349;-87
2022/01/29 03:58:21;;;;;;;49.97;24.27;;;6.50;99.90;;;;;;5014299;28;20042;-87
2022/01/29 04:00:51;;;;;;;50.90;22.27;;;6.20;99.90;;;;;;5013509;28;20045;-87
2022/01/29 04:03:16;;;;;;;51.83;23.33;;;6.70;99.90;;;;;;5014061;28;20045;-87
2022/01/29 04:05:42;;;;;;;48.47;23.20;;;6.50;99.90;;;;;;5013997;28;20050;-87
2022/01/29 04:08:16;;;;;;;50.70;23.07;;;6.60;99.90;;;;;;5013786;28;20061;-87
2022/01/29 04:10:50;;;;;;;57.53;24.40;;;7.60;99.90;;;;;;5014371;28;20052;-87
2022/01/29 04:13:20;;;;;;;50.63;23.45;;;6.20;99.90;;;;;;5018764;23;20125;-86
2022/01/29 04:15:45;;;;;;;48.37;22.27;;;6.70;99.90;;;;;;4973769;28;20074;-86
2022/01/29 04:18:11;;;;;;;55.53;24.27;;;6.70;99.90;;;;;;4974950;28;20406;-87
2022/01/29 04:20:37;;;;;;;51.10;22.10;;;6.70;99.90;;;;;;4975425;28;20070;-86
2022/01/29 04:23:20;;;;;;;62.23;24.40;;;7.40;99.90;;;;;;4975046;28;20046;-86
2022/01/29 04:25:46;;;;;;;59.00;24.53;;;6.70;99.90;;;;;;4975049;28;20126;-86
2022/01/29 04:28:13;;;;;;;62.03;24.83;;;6.60;99.90;;;;;;4975257;28;20185;-87
2022/01/29 04:30:50;;;;;;;57.43;23.30;;;6.70;99.90;;;;;;4974522;28;20062;-87
2022/01/29 04:35:44;;;;;;;60.70;25.27;;;6.70;99.90;;;;;;4973820;28;20082;-86
2022/01/29 04:38:15;;;;;;;57.40;25.33;;;6.80;99.90;;;;;;4974963;28;20189;-86
2022/01/29 04:40:42;;;;;;;59.90;24.80;;;6.80;99.90;;;;;;4974673;28;20054;-86
2022/01/29 04:43:08;;;;;;;54.53;22.70;;;6.70;99.90;;;;;;4973375;28;20198;-86
2022/01/29 04:45:40;;;;;;;62.57;25.00;;;6.50;99.90;;;;;;4974562;28;20043;-87
2022/01/29 04:48:06;;;;;;;59.00;25.13;;;7.30;99.90;;;;;;4975731;28;20055;-86
2022/01/29 04:50:44;;;;;;;63.23;24.63;;;6.60;99.90;;;;;;4973856;28;20050;-86
2022/01/29 04:53:18;;;;;;;58.63;24.03;;;7.60;99.90;;;;;;4974448;28;20050;-86
2022/01/29 04:55:44;;;;;;;56.80;25.77;;;7.40;99.90;;;;;;4974015;28;20082;-86
2022/01/29 04:58:10;;;;;;;58.73;24.50;;;6.80;99.90;;;;;;4973059;28;20043;-86
2022/01/29 05:00:47;;;;;;;62.40;24.30;;;6.80;99.90;;;;;;4973988;28;20057;-86
2022/01/29 05:03:22;;;;;;;60.97;24.07;;;6.60;99.90;;;;;;4974041;28;20104;-86
2022/01/29 05:05:47;;;;;;;58.53;23.77;;;6.60;99.90;;;;;;4972461;28;20043;-86
2022/01/29 05:08:18;;;;;;;52.63;23.17;;;6.80;99.90;;;;;;4974156;28;20053;-86
2022/01/29 05:10:56;;;;;;;55.23;23.50;;;7.60;99.90;;;;;;4973700;28;20644;-87
2022/01/29 05:13:39;;;;;;;56.17;24.80;;;6.80;99.90;;;;;;4973916;28;20129;-86
2022/01/29 05:27:27;;;;;;;48.42;22.13;;;7.10;99.90;;;;;;4973361;28;20089;-87
2022/01/29 05:29:52;;;;;;;44.53;19.90;;;7.10;99.90;;;;;;4973669;28;20125;-87
2022/01/29 05:32:22;;;;;;;46.77;21.80;;;7.20;99.90;;;;;;4972574;28;20049;-86
2022/01/29 05:34:48;;;;;;;46.53;21.13;;;8.40;99.90;;;;;;4973550;28;20043;-86
2022/01/29 05:37:23;;;;;;;46.57;20.80;;;7.10;99.90;;;;;;4973284;28;20051;-87
2022/01/29 05:40:02;;;;;;;41.10;20.97;;;7.40;99.90;;;;;;4972952;28;20507;-86
2022/01/29 05:42:39;;;;;;;41.83;20.10;;;7.40;99.90;;;;;;4973635;28;20035;-86
2022/01/29 05:45:20;;;;;;;43.37;19.87;;;7.60;99.90;;;;;;4973865;28;20069;-86
2022/01/29 05:47:55;;;;;;;41.17;20.87;;;7.00;99.90;;;;;;4972382;28;20051;-86
2022/01/29 05:50:33;;;;;;;43.87;19.73;;;7.00;99.90;;;;;;4973717;28;20039;-86
2022/01/29 05:53:11;;;;;;;42.20;19.43;;;7.10;99.90;;;;;;4973785;28;20051;-87
2022/01/29 05:55:43;;;;;;;37.47;19.67;;;7.20;99.90;;;;;;4973063;28;20407;-86
2022/01/29 05:58:18;;;;;;;38.93;17.57;;;8.80;99.90;;;;;;4973005;28;20078;-88
2022/01/29 06:00:56;;;;;;;35.60;17.93;;;7.50;99.90;;;;;;4972861;28;20117;-87
2022/01/29 06:03:28;;;;;;;38.13;18.30;;;7.30;99.90;;;;;;4972779;28;20402;-87
2022/01/29 06:05:57;;;;;;;37.20;18.83;;;7.30;99.90;;;;;;4972839;28;20050;-86
2022/01/29 06:08:31;;;;;;;36.80;19.67;;;7.20;99.90;;;;;;4972557;28;20491;-86
2022/01/29 06:11:09;;;;;;;37.83;19.27;;;7.60;99.90;;;;;;4973442;28;20146;-86
2022/01/29 06:14:01;;;;;;;39.97;18.80;;;7.20;99.90;;;;;;4971748;28;20093;-86
2022/01/29 06:21:45;;;;;;;42.10;19.60;;;7.50;99.90;;;;;;4994526;28;20046;-86
2022/01/29 06:24:20;;;;;;;39.10;19.50;;;7.30;99.90;;;;;;4995907;28;20064;-87
2022/01/29 06:26:57;;;;;;;41.30;18.43;;;7.30;99.90;;;;;;4995120;28;20125;-86
2022/01/29 06:29:23;;;;;;;39.33;18.67;;;7.40;99.90;;;;;;4994704;28;20054;-86
2022/01/29 06:31:49;;;;;;;37.37;18.87;;;8.30;99.90;;;;;;4995191;28;20069;-86
2022/01/29 06:34:15;;;;;;;36.00;18.93;;;7.60;99.90;;;;;;4995767;28;20095;-87
2022/01/29 06:36:46;;;;;;;35.77;18.80;;;7.40;99.90;;;;;;4995403;28;20132;-86
2022/01/29 06:39:18;;;;;;;36.30;17.67;;;7.40;99.90;;;;;;4999741;28;20454;-88
2022/01/29 06:41:56;;;;;;;33.23;17.03;;;7.50;99.90;;;;;;4999440;28;20387;-86
2022/01/29 06:44:27;;;;;;;37.57;17.63;;;7.40;99.90;;;;;;5016456;28;20478;-86
2022/01/29 06:47:02;;;;;;;32.07;16.67;;;8.60;99.90;;;;;;5017944;28;20064;-86
2022/01/29 06:49:27;;;;;;;40.57;21.53;;;7.60;99.90;;;;;;5015702;28;20053;-87
2022/01/29 06:51:53;;;;;;;76.87;50.47;;;7.60;99.90;;;;;;5016922;28;20045;-86
2022/01/29 06:54:28;;;;;;;48.97;28.10;;;7.70;99.90;;;;;;4999231;28;20482;-86
2022/01/29 06:56:57;;;;;;;55.03;31.63;;;7.70;99.90;;;;;;4998563;28;20058;-86
2022/01/29 06:59:32;;;;;;;31.33;17.63;;;8.50;99.90;;;;;;4999135;28;20505;-86
2022/01/29 07:02:04;;;;;;;37.20;21.70;;;8.90;99.90;;;;;;5017089;28;20049;-86
2022/01/29 07:04:29;;;;;;;32.93;18.63;;;7.70;99.90;;;;;;4997989;28;20041;-87
2022/01/29 07:06:55;;;;;;;28.90;15.53;;;7.70;99.90;;;;;;4999300;28;20050;-86
2022/01/29 07:09:33;;;;;;;30.97;16.43;;;7.50;99.90;;;;;;5001022;28;20042;-86
2022/01/29 07:12:09;;;;;;;32.67;17.13;;;7.50;99.90;;;;;;5015811;28;20124;-86
2022/01/29 07:14:39;;;;;;;30.30;15.77;;;7.80;99.90;;;;;;4998798;28;20054;-87
2022/01/29 07:17:17;;;;;;;30.73;17.20;;;7.90;99.90;;;;;;4995140;28;20055;-87
2022/01/29 07:19:51;;;;;;;31.83;16.27;;;7.90;99.90;;;;;;4994004;28;20383;-86
2022/01/29 07:22:34;;;;;;;31.63;15.85;;;7.60;99.90;;;;;;4995287;28;20370;-86
2022/01/29 07:25:03;;;;;;;30.43;17.33;;;7.80;99.90;;;;;;4995676;28;20049;-87
2022/01/29 07:27:35;;;;;;;28.87;17.10;;;7.70;99.90;;;;;;4994889;28;20054;-86
2022/01/29 07:30:16;;;;;;;33.57;15.03;;;7.20;99.90;;;;;;4995573;28;20066;-87
2022/01/29 07:32:57;;;;;;;28.43;16.47;;;7.60;99.90;;;;;;4994491;28;20391;-87
2022/01/29 07:35:44;;;;;;;32.47;15.23;;;7.90;99.90;;;;;;4997655;28;20387;-91
2022/01/29 07:38:14;;;;;;;27.97;14.87;;;7.30;99.90;;;;;;4999015;28;20046;-92
2022/01/29 07:40:48;;;;;;;27.57;15.53;;;7.60;99.90;;;;;;4995494;28;20057;-90
2022/01/29 07:43:32;;;;;;;31.40;14.70;;;9.00;99.90;;;;;;5002588;28;20513;-92
2022/01/29 07:46:14;;;;;;;27.95;14.02;;;8.60;99.90;;;;;;5000828;23;20085;-92
2022/01/29 07:49:09;;;;;;;22.83;12.47;;;8.00;99.90;;;;;;4995626;28;20048;-90
2022/01/29 07:51:36;;;;;;;27.40;13.67;;;7.10;99.90;;;;;;5258276;23;20062;-93
2022/01/29 08:00:29;;;;;;;25.53;12.77;;;7.20;99.90;;;;;;5076321;23;20046;-91
2022/01/29 08:08:08;;;;;;;24.90;13.30;;;7.70;99.90;;;;;;5014066;28;20054;-94
2022/01/29 08:10:40;;;;;;;27.93;13.30;;;8.30;99.90;;;;;;5015580;28;20065;-92
2022/01/29 08:13:21;;;;;;;27.60;13.17;;;7.80;99.90;;;;;;5011140;28;20038;-90
2022/01/29 08:15:47;;;;;;;25.37;13.63;;;7.90;99.90;;;;;;5002960;28;20433;-89
2022/01/29 08:18:23;;;;;;;29.63;13.70;;;8.40;99.90;;;;;;5004071;28;20132;-89
2022/01/29 08:20:57;;;;;;;30.53;14.13;;;8.80;99.90;;;;;;5004479;28;20042;-89
2022/01/29 08:23:23;;;;;;;27.60;14.03;;;8.30;99.90;;;;;;5003988;28;20118;-90
2022/01/29 08:25:54;;;;;;;29.40;13.77;;;9.40;99.90;;;;;;5004782;28;20097;-91
2022/01/29 08:28:32;;;;;;;29.47;14.07;;;8.10;99.90;;;;;;5011600;28;20057;-91
2022/01/29 08:31:07;;;;;;;26.13;13.27;;;7.90;99.90;;;;;;5155855;23;20116;-89
2022/01/29 08:33:45;;;;;;;23.37;12.40;;;8.60;99.90;;;;;;4984175;28;20078;-89
2022/01/29 08:36:16;;;;;;;27.10;12.97;;;8.50;99.90;;;;;;4986632;28;20057;-90
2022/01/29 08:39:33;;;;;;;24.27;12.80;;;8.60;99.90;;;;;;4992054;23;20101;-90
2022/01/29 08:41:59;;;;;;;24.57;12.47;;;8.00;99.90;;;;;;5015429;28;20140;-89
2022/01/29 08:44:31;;;;;;;27.07;13.63;;;7.70;99.90;;;;;;5017545;28;20378;-89
2022/01/29 08:47:05;;;;;;;22.43;11.87;;;8.00;99.90;;;;;;5016981;28;20045;-89
2022/01/29 08:49:40;;;;;;;23.40;10.97;;;8.30;99.90;;;;;;5015909;28;20128;-87
2022/01/29 08:52:14;;;;;;;36.23;18.73;;;8.30;99.90;;;;;;5017432;28;20081;-89
2022/01/29 08:54:39;;;;;;;25.30;13.40;;;8.20;99.90;;;;;;5022077;28;20049;-89
2022/01/29 08:57:08;;;;;;;24.33;12.67;;;8.10;99.90;;;;;;5017494;28;20111;-89
2022/01/29 08:59:51;;;;;;;24.90;14.33;;;8.50;99.90;;;;;;5017592;28;20045;-90
2022/01/29 09:02:18;;;;;;;25.73;13.02;;;8.10;99.90;;;;;;5019256;28;20358;-89
2022/01/29 09:04:43;;;;;;;27.23;14.13;;;8.50;99.90;;;;;;5027674;28;20085;-90
2022/01/29 09:07:09;;;;;;;48.10;23.07;;;8.60;99.90;;;;;;5016677;28;20072;-91
2022/01/29 09:09:36;;;;;;;43.40;14.67;;;8.60;99.90;;;;;;5015837;28;20037;-91
2022/01/29 09:12:02;;;;;;;32.47;12.33;;;8.70;99.90;;;;;;5016247;28;20045;-91
2022/01/29 09:14:43;;;;;;;30.33;14.53;;;8.50;99.90;;;;;;5032620;28;20044;-92
2022/01/29 09:19:37;;;;;;;27.97;13.67;;;8.50;99.90;;;;;;5008452;28;20053;-90
2022/01/29 09:22:03;;;;;;;33.87;17.23;;;9.40;99.90;;;;;;4975627;28;20085;-90
2022/01/29 09:24:38;;;;;;;28.83;13.83;;;8.30;99.90;;;;;;4973411;28;20137;-91
2022/01/29 09:27:18;;;;;;;22.87;11.27;;;8.30;99.90;;;;;;4975921;28;20054;-90
2022/01/29 09:29:56;;;;;;;37.13;21.33;;;9.10;99.90;;;;;;4977204;28;20960;-93
2022/01/29 09:32:25;;;;;;;26.27;13.80;;;10.60;99.90;;;;;;4976448;28;20105;-90
2022/01/29 09:34:57;;;;;;;24.70;13.60;;;8.90;99.90;;;;;;4977128;28;20042;-91
2022/01/29 09:37:29;;;;;;;23.70;12.07;;;9.50;99.90;;;;;;4977747;28;20397;-90
2022/01/29 09:39:55;;;;;;;19.83;11.47;;;9.20;99.90;;;;;;4988048;28;20073;-90
2022/01/29 09:42:35;;;;;;;23.63;11.53;;;8.10;99.90;;;;;;4980447;28;20052;-90
2022/01/29 09:45:21;;;;;;;32.17;15.07;;;8.60;99.90;;;;;;4978046;28;20057;-90
2022/01/29 09:48:02;;;;;;;31.13;17.30;;;8.40;99.90;;;;;;4977643;28;20401;-90
2022/01/29 09:50:31;;;;;;;22.83;12.43;;;7.40;99.90;;;;;;4977051;28;20046;-90
2022/01/29 09:52:58;;;;;;;21.97;12.03;;;8.40;99.90;;;;;;4976036;28;20478;-89
2022/01/29 09:55:25;;;;;;;20.40;11.20;;;8.60;99.90;;;;;;4976304;28;20050;-89
2022/01/29 09:57:54;;;;;;;21.43;10.77;;;8.70;99.90;;;;;;4976595;28;20053;-90
2022/01/29 10:00:36;;;;;;;23.10;12.10;;;9.60;99.90;;;;;;4977276;28;20053;-90
2022/01/29 10:03:10;;;;;;;17.93;10.50;;;8.60;99.90;;;;;;4993838;28;20097;-90
2022/01/29 10:05:38;;;;;;;19.90;10.80;;;9.40;99.90;;;;;;4977078;28;20082;-91
2022/01/29 10:08:05;;;;;;;18.10;10.43;;;8.80;99.90;;;;;;4975872;28;20053;-91
2022/01/29 10:10:43;;;;;;;15.47;7.90;;;8.70;99.90;;;;;;4976189;28;20466;-91
2022/01/29 10:13:32;;;;;;;20.63;10.47;;;8.70;99.90;;;;;;4976310;28;20537;-91
2022/01/29 10:16:27;;;;;;;22.23;11.33;;;9.00;99.90;;;;;;4981046;28;20038;-90
2022/01/29 10:19:07;;;;;;;18.73;8.82;;;9.00;99.90;;;;;;4977436;28;20518;-89
2022/01/29 10:21:39;;;;;;;16.47;8.93;;;9.10;99.90;;;;;;4974534;28;20058;-87
2022/01/29 10:24:30;;;;;;;16.23;8.30;;;9.10;99.90;;;;;;4993889;28;20463;-90
2022/01/29 10:27:06;;;;;;;17.90;8.73;;;9.00;99.90;;;;;;4975973;28;20046;-91
2022/01/29 10:29:33;;;;;;;15.67;8.33;;;9.10;99.90;;;;;;4962929;23;20175;-91
2022/01/29 10:32:24;;;;;;;17.70;8.27;;;8.80;99.90;;;;;;4954479;29;20066;-90
2022/01/29 10:34:55;;;;;;;16.17;8.60;;;8.70;99.90;;;;;;4954299;29;20130;-91
2022/01/29 10:37:25;;;;;;;16.30;7.87;;;9.50;99.90;;;;;;4954639;29;20090;-92
2022/01/29 10:39:51;;;;;;;14.27;8.27;;;;;;;;;;4962848;23;20099;-90
2022/01/29 10:42:27;;;;;;;15.80;8.10;;;9.20;99.90;;;;;;4975329;28;20051;-91
2022/01/29 10:45:01;;;;;;;17.90;8.50;;;9.00;99.90;;;;;;4981803;28;20050;-92
2022/01/29 10:48:08;;;;;;;19.33;8.23;;;9.00;99.90;;;;;;4987833;28;20046;-91
2022/01/29 10:51:22;;;;;;;19.83;9.80;;;9.00;99.90;;;;;;4981035;28;20160;-93
2022/01/29 10:54:28;;;;;;;21.93;10.73;;;9.30;99.90;;;;;;4993146;28;20395;-93
2022/01/29 10:57:04;;;;;;;21.80;11.13;;;9.30;99.90;;;;;;4982079;28;20395;-92
2022/01/29 11:03:27;;;;;;;27.00;14.17;;;9.40;99.90;;;;;;4963808;28;20075;-90
2022/01/29 11:06:13;;;;;;;17.50;9.07;;;9.90;99.90;;;;;;4945756;28;20047;-90
2022/01/29 11:08:40;;;;;;;20.23;10.90;;;9.30;99.90;;;;;;4938020;29;20395;-91
2022/01/29 11:11:16;;;;;;;20.23;9.03;;;8.90;99.90;;;;;;4937780;29;20048;-91
2022/01/29 11:13:43;;;;;;;15.70;9.60;;;9.30;99.90;;;;;;4987383;23;20046;-91
2022/01/29 11:16:11;;;;;;;15.90;8.53;;;8.60;99.90;;;;;;5004590;23;20042;-91
2022/01/29 11:18:36;;;;;;;15.07;6.03;;;9.40;99.90;;;;;;5013771;28;20049;-92
2022/01/29 11:21:05;;;;;;;12.67;6.60;;;10.30;99.90;;;;;;5015466;28;20095;-92
2022/01/29 11:23:32;;;;;;;15.30;6.23;;;9.80;99.90;;;;;;5033180;28;20489;-91
2022/01/29 11:26:13;;;;;;;13.90;5.43;;;9.50;99.90;;;;;;5018317;28;20049;-90
2022/01/29 11:28:48;;;;;;;12.93;6.20;;;9.50;99.90;;;;;;5026961;28;20041;-92
2022/01/29 11:31:13;;;;;;;14.00;5.65;;;10.20;99.90;;;;;;5029205;28;20045;-91
2022/01/29 11:33:59;;;;;;;11.70;5.40;;;8.80;99.90;;;;;;5019630;28;20127;-91
2022/01/29 11:37:07;;;;;;;14.00;4.77;;;9.70;99.90;;;;;;5018994;28;20493;-90
2022/01/29 11:40:21;;;;;;;12.83;5.93;;;9.60;99.90;;;;;;5017978;28;20060;-92
2022/01/29 11:43:11;;;;;;;;;;;;;;;;;;;;;
2022/01/29 11:46:07;;;;;;;11.50;5.50;;;9.80;99.90;;;;;;5036174;28;20052;-91
2022/01/29 11:52:18;;;;;;;10.45;3.90;;;9.90;99.90;;;;;;4960487;28;20102;-89
2022/01/29 11:55:06;;;;;;;13.83;5.27;;;9.10;99.90;;;;;;4959431;28;20082;-91
2022/01/29 11:58:22;;;;;;;12.40;4.87;;;10.00;99.90;;;;;;5016169;23;20050;-93
2022/01/29 12:04:44;;;;;;;10.73;3.83;;;10.10;99.90;;;;;;4936770;29;20054;-87
2022/01/29 12:07:21;;;;;;;13.67;4.63;;;9.20;99.90;;;;;;4960277;28;20062;-91
2022/01/29 12:10:53;;;;;;;12.17;3.43;;;10.90;99.90;;;;;;4934560;29;20055;-93
2022/01/29 12:19:48;;;;;;;11.37;3.30;;;10.20;99.90;;;;;;4997483;28;20045;-91
2022/01/29 12:22:26;;;;;;;9.77;3.10;;;11.40;99.90;;;;;;4997572;28;20057;-91
2022/01/29 12:25:12;;;;;;;9.57;3.03;;;10.00;99.90;;;;;;4998655;28;20052;-91
2022/01/29 12:27:49;;;;;;;10.93;3.23;;;9.70;99.90;;;;;;4998009;28;20046;-89
2022/01/29 12:30:36;;;;;;;8.75;2.90;;;10.30;99.90;;;;;;5003933;28;20049;-92
2022/01/29 12:33:03;;;;;;;10.95;3.13;;;11.60;99.90;;;;;;4998808;28;20046;-92
2022/01/29 12:36:20;;;;;;;9.33;3.23;;;10.60;99.90;;;;;;5000911;23;20133;-94
2022/01/29 12:39:38;;;;;;;9.07;2.90;;;10.50;99.90;;;;;;5000259;28;20062;-93
2022/01/29 12:45:00;;;;;;;13.20;5.40;;;10.70;99.90;;;;;;5003232;28;20106;-94
2022/01/29 12:50:49;;;;;;;11.43;4.80;;;11.10;99.90;;;;;;5005871;28;20049;-92
2022/01/29 12:53:33;;;;;;;18.42;8.70;;;10.30;99.90;;;;;;5001044;28;20053;-94
2022/01/29 12:56:43;;;;;;;15.10;6.50;;;10.50;99.90;;;;;;5018470;23;20053;-91
2022/01/29 12:59:37;;;;;;;12.25;6.22;;;10.40;99.90;;;;;;4994726;28;20050;-93
2022/01/29 13:02:04;;;;;;;12.05;4.50;;;10.60;99.90;;;;;;4994050;28;20080;-92
2022/01/29 13:04:30;;;;;;;13.55;4.00;;;10.50;99.90;;;;;;4993548;28;20105;-94
2022/01/29 13:07:22;;;;;;;11.40;4.28;;;10.60;99.90;;;;;;4994972;28;20483;-93
2022/01/29 13:10:12;;;;;;;14.23;3.97;;;10.60;99.90;;;;;;4999788;23;20052;-93
2022/01/29 13:12:46;;;;;;;12.50;5.03;;;10.90;99.90;;;;;;4994871;28;20042;-95
2022/01/29 13:20:52;;;;;;;14.25;5.25;;;11.30;99.90;;;;;;5029761;28;20132;-90
2022/01/29 13:23:37;;;;;;;14.73;4.80;;;10.30;99.90;;;;;;4925226;29;20094;-91
2022/01/29 13:26:28;;;;;;;11.27;3.78;;;11.30;99.90;;;;;;4996099;28;20046;-90
2022/01/29 13:29:33;;;;;;;14.57;5.30;;;10.30;99.90;;;;;;5015875;28;20049;-93
2022/01/29 13:32:27;;;;;;;12.40;4.78;;;10.30;99.90;;;;;;5009959;28;20481;-94
2022/01/29 13:40:54;;;;;;;10.60;3.38;;;10.40;99.90;;;;;;4964698;28;19922;-94
2022/01/29 13:43:42;;;;;;;12.68;3.55;;;10.40;99.90;;;;;;4946075;29;20058;-95
2022/01/29 13:46:21;;;;;;;13.00;5.13;;;10.30;99.90;;;;;;4962055;28;20049;-94
2022/01/29 13:49:52;;;;;;;;;;;10.20;99.90;;;;;;4941735;28;20055;-93
2022/01/29 13:52:40;;;;;;;16.35;7.40;;;10.50;99.90;;;;;;4930715;28;19944;-93
2022/01/29 13:55:09;;;;;;;15.63;7.10;;;10.80;99.90;;;;;;4963140;28;20038;-94
2022/01/29 13:58:18;;;;;;;13.97;4.27;;;10.30;99.90;;;;;;4948638;29;20073;-92
2022/01/29 14:01:37;;;;;;;27.90;14.90;;;10.20;99.90;;;;;;5071044;23;20042;-90
2022/01/29 14:07:43;;;;;;;10.50;3.28;;;11.00;99.90;;;;;;4997052;23;20050;-90
2022/01/29 14:10:13;;;;;;;11.27;3.17;;;10.10;99.90;;;;;;4993130;28;20051;-90
2022/01/29 14:12:51;;;;;;;12.07;3.42;;;10.50;99.90;;;;;;4991919;28;20093;-90
2022/01/29 14:15:18;;;;;;;11.05;3.08;;;10.70;99.90;;;;;;4993130;28;20442;-90
2022/01/29 14:17:56;;;;;;;13.35;3.55;;;9.70;99.90;;;;;;4991754;28;20074;-90
2022/01/29 14:20:23;;;;;;;13.32;4.03;;;10.20;99.90;;;;;;4992145;28;20086;-90
2022/01/29 14:23:10;;;;;;;11.52;3.00;;;10.70;99.90;;;;;;4991968;28;20045;-91
2022/01/29 14:26:01;;;;;;;10.85;2.75;;;10.60;99.90;;;;;;4997017;23;20089;-90
2022/01/29 14:28:30;;;;;;;11.85;4.43;;;10.60;99.90;;;;;;4936728;29;20472;-91
2022/01/29 14:30:56;;;;;;;13.18;3.92;;;10.40;99.90;;;;;;4950389;29;20067;-91
2022/01/29 14:33:24;;;;;;;16.77;7.82;;;10.40;99.90;;;;;;4949943;29;20411;-90